Gerard, New Jersey
Current Conditions -  °F | °C
As of 9:53 PM on Sunday 23 Nov 2014 (Local Time) from KFWN Reporting Station
Clear Clear  
Wind Chill: 37°   Ceiling: Unl
Heat Index: 37°   Visibility: 10mi
Dew Point: 29°   Wind: 0mph
Humidity: 73%   Direction: NA
Pressure: 30.03"   Gusts: NA
Location:  41.1122°N, 74.4998°W
Report Text: KFWN 240253Z AUTO 00000KT 10SM CLR 03/M02 A3003 RMK AO2 SLP172 T00281017 58020
Loading
Personal Weather Stations






























Interactive Weather Map New forecast layout! Learn more

10-Day Weather Forecast

Advertisements
Track Severe Weather on mobile